Home > Products > Valid Products > TAF

000
FTUS44 KBRO 050520
TAFHRL
TAF
KHRL 050520Z 0506/0606 01004KT 6SM BR BKN013 OVC019
      TEMPO 0506/0509 4SM BR OVC015
     FM050900 01015KT 4SM BR OVC007
     FM051200 35025G35KT 6SM -SHRA BR OVC007
     FM051800 35020G30KT 4SM -DZ BR OVC015
     FM060000 36015G20KT 6SM -RA BR OVC010=



000
FTUS44 KBRO 050520
TAFBRO
TAF
KBRO 050520Z 0506/0606 12005KT 6SM BR OVC028
      TEMPO 0506/0509 4SM BR OVC015
     FM050900 35015KT 4SM BR OVC007
     FM051200 34025G35KT 6SM -SHRA BR OVC007
     FM051800 33020G30KT 4SM -DZ BR OVC015
     FM060000 34015G20KT 6SM -RA BR OVC010=



000
FTUS44 KBRO 050520
TAFMFE
TAF
KMFE 050520Z 0506/0606 00000KT 5SM BR BKN014 BKN021 BKN035
      TEMPO 0506/0509 4SM BR OVC015
     FM050900 35015KT 4SM BR OVC007
     FM051200 34020G30KT 6SM -SHRA BR OVC007
     FM051800 33015G25KT 4SM -DZ BR OVC015
     FM060000 34015KT 6SM -RA BR OVC010=



000
FTUS44 KBRO 050520
TAFHRL
TAF
KHRL 050520Z 0506/0606 01004KT 6SM BR BKN013 OVC019
      TEMPO 0506/0509 4SM BR OVC015
     FM050900 01015KT 4SM BR OVC007
     FM051200 35025G35KT 6SM -SHRA BR OVC007
     FM051800 35020G30KT 4SM -DZ BR OVC015
     FM060000 36015G20KT 6SM -RA BR OVC010=



000
FTUS44 KBRO 050520
TAFMFE
TAF
KMFE 050520Z 0506/0606 00000KT 5SM BR BKN014 BKN021 BKN035
      TEMPO 0506/0509 4SM BR OVC015
     FM050900 35015KT 4SM BR OVC007
     FM051200 34020G30KT 6SM -SHRA BR OVC007
     FM051800 33015G25KT 4SM -DZ BR OVC015
     FM060000 34015KT 6SM -RA BR OVC010=



000
FTUS44 KBRO 050520
TAFBRO
TAF
KBRO 050520Z 0506/0606 12005KT 6SM BR OVC028
      TEMPO 0506/0509 4SM BR OVC015
     FM050900 35015KT 4SM BR OVC007
     FM051200 34025G35KT 6SM -SHRA BR OVC007
     FM051800 33020G30KT 4SM -DZ BR OVC015
     FM060000 34015G20KT 6SM -RA BR OVC010=



000
FTUS44 KBRO 050338 AAA
TAFMFE
TAF AMD
KMFE 050338Z 0504/0524 14009KT 6SM HZ BKN100
     FM050600 13011KT 4SM BR OVC007
      TEMPO 0506/0509 2SM BR OVC004
     FM050900 01015KT 4SM BR OVC004
     FM051200 34020G30KT 5SM -SHRA BR OVC007
     FM051800 33015G25KT 6SM -DZ BR OVC007=



000
FTUS44 KBRO 050336 AAA
TAFHRL
TAF AMD
KHRL 050336Z 0504/0524 12005KT P6SM FEW028 BKN250
     FM050600 14011KT 4SM BR OVC007
      TEMPO 0506/0509 2SM BR OVC004
     FM050900 01015KT 4SM BR OVC004
     FM051200 35020G30KT 5SM -SHRA BR OVC007
     FM051800 34015G25KT 6SM -DZ BR OVC007=



000
FTUS44 KBRO 050336 AAA
TAFHRL
TAF AMD
KHRL 050336Z 0504/0524 12005KT P6SM FEW028 BKN250
     FM050600 14011KT 4SM BR OVC007
      TEMPO 0506/0509 2SM BR OVC004
     FM050900 01015KT 4SM BR OVC004
     FM051200 35020G30KT 5SM -SHRA BR OVC007
     FM051800 34015G25KT 6SM -DZ BR OVC007=



000
FTUS44 KBRO 050335 AAC
TAFBRO
TAF AMD
KBRO 050335Z 0504/0524 16004KT P6SM SCT008 OVC022
     FM050600 07011KT 4SM BR OVC007
      TEMPO 0506/0509 2SM BR OVC004
     FM050900 33015KT 4SM BR OVC004
     FM051200 34020G30KT 5SM -SHRA BR OVC007
     FM051800 33015G25KT 6SM -DZ BR OVC007=



000
FTUS44 KBRO 050150 AAB
TAFBRO
TAF AMD
KBRO 050150Z 0502/0524 14009KT P6SM BKN007 OVC023
     FM050600 07011KT 4SM BR OVC007
      TEMPO 0506/0509 2SM BR OVC004
     FM050900 33015KT 4SM BR OVC004
     FM051200 34020G30KT 5SM -SHRA BR OVC007
     FM051800 33015G25KT 6SM -DZ BR OVC007=



000
FTUS44 KBRO 050150 AAB
TAFBRO
TAF AMD
KBRO 050150Z 0502/0524 14009KT P6SM BKN007 OVC023
     FM050600 07011KT 4SM BR OVC007
      TEMPO 0506/0509 2SM BR OVC004
     FM050900 33015KT 4SM BR OVC004
     FM051200 34020G30KT 5SM -SHRA BR OVC007
     FM051800 33015G25KT 6SM -DZ BR OVC007=



000
FTUS44 KBRO 050001 AAA
TAFBRO
TAF AMD
KBRO 050001Z 0500/0524 14013KT P6SM OVC017
     FM050600 07011KT 4SM BR OVC007
      TEMPO 0506/0509 2SM BR OVC004
     FM050900 33015KT 4SM BR OVC004
     FM051200 34020G30KT 5SM -SHRA BR OVC007
     FM051800 33015G25KT 6SM -DZ BR OVC007=



000
FTUS44 KBRO 050001 AAA
TAFBRO
TAF AMD
KBRO 050001Z 0500/0524 14013KT P6SM OVC017
     FM050600 07011KT 4SM BR OVC007
      TEMPO 0506/0509 2SM BR OVC004
     FM050900 33015KT 4SM BR OVC004
     FM051200 34020G30KT 5SM -SHRA BR OVC007
     FM051800 33015G25KT 6SM -DZ BR OVC007=



000
FTUS44 KBRO 042320
TAFMFE
TAF
KMFE 042320Z 0500/0524 12012KT P6SM BKN250
     FM050300 14008KT 6SM BR BKN015
     FM050600 13011KT 4SM BR OVC007
      TEMPO 0506/0509 2SM BR OVC004
     FM050900 01015KT 4SM BR OVC004
     FM051200 34020G30KT 5SM -SHRA BR OVC007
     FM051800 33015G25KT 6SM -DZ BR OVC007=



000
FTUS44 KBRO 042320
TAFBRO
TAF
KBRO 042320Z 0500/0524 15015KT P6SM SCT024
     FM050300 14008KT 6SM BR BKN015
     FM050600 07011KT 4SM BR OVC007
      TEMPO 0506/0509 2SM BR OVC004
     FM050900 33015KT 4SM BR OVC004
     FM051200 34020G30KT 5SM -SHRA BR OVC007
     FM051800 33015G25KT 6SM -DZ BR OVC007=



000
FTUS44 KBRO 042320
TAFHRL
TAF
KHRL 042320Z 0500/0524 16017KT P6SM BKN030
     FM050300 15008KT 6SM BR BKN015
     FM050600 14011KT 4SM BR OVC007
      TEMPO 0506/0509 2SM BR OVC004
     FM050900 01015KT 4SM BR OVC004
     FM051200 35020G30KT 5SM -SHRA BR OVC007
     FM051800 34015G25KT 6SM -DZ BR OVC007=



000
FTUS44 KBRO 041728
TAFHRL
TAF
KHRL 041728Z 0418/0518 18018G24KT P6SM BKN018 BKN026 OVC030
     FM042000 18018G25KT P6SM SCT020 BKN035
     FM050200 15010KT 5SM BR BKN015
     FM050400 16007KT 6SM BR OVC007
     FM050900 01015G20KT 4SM BR VCSH OVC003
     FM051100 02024G34KT 6SM -SHRA BR OVC006=



000
FTUS44 KBRO 041728
TAFMFE
TAF
KMFE 041728Z 0418/0518 16012KT P6SM OVC018
     FM042000 17015G22KT P6SM SCT020 BKN030
     FM050100 14010KT 5SM BR BKN015
     FM050400 14008KT P6SM OVC007
     FM050900 36018G25KT P6SM -SHRA OVC006
     FM051200 35022G30KT 6SM -SHRA BR OVC006=



000
FTUS44 KBRO 041728
TAFBRO
TAF
KBRO 041728Z 0418/0518 17020G25KT P6SM BKN015 BKN022 OVC035
     FM042000 18018G25KT P6SM SCT020 BKN035
     FM050200 15008KT 6SM BR BKN015
     FM050400 16011KT 4SM BR OVC007
      TEMPO 0504/0508 2SM BR OVC003
     FM051100 36023G32KT 5SM -SHRA BR OVC006=



000
FTUS44 KBRO 041141 CCA
TAFBRO
TAF COR
KBRO 041141Z 0412/0512 15013KT 6SM BR BKN006 BKN013
     FM041400 15013G18KT P6SM BKN015
     FM041600 16018G25KT P6SM BKN025
     FM050100 15008KT 5SM BR BKN015
     FM050400 16011KT 4SM BR OVC003
      TEMPO 0504/0508 2SM BR
     FM051100 36014G21KT 4SM -SHRA BR OVC007=



000
FTUS44 KBRO 041141 CCA
TAFBRO
TAF COR
KBRO 041141Z 0412/0512 15013KT 6SM BR BKN006 BKN013
     FM041400 15013G18KT P6SM BKN015
     FM041600 16018G25KT P6SM BKN025
     FM050100 15008KT 5SM BR BKN015
     FM050400 16011KT 4SM BR OVC003
      TEMPO 0504/0508 2SM BR
     FM051100 36014G21KT 4SM -SHRA BR OVC007=



000
FTUS44 KBRO 041134
TAFMFE
TAF
KMFE 041134Z 0412/0512 16012KT P6SM OVC011
     FM041300 15012G17KT P6SM BKN012
     FM041500 16015G20KT P6SM BKN025
     FM050100 14010KT 5SM BR BKN015
     FM050400 14010KT P6SM OVC007
     FM051000 36021G29KT P6SM VCSH OVC007 PROB30 0511/0512 5SM -SHRA
      OVC007=



000
FTUS44 KBRO 041134
TAFBRO
TAF
KBRO 041134Z 0412/0512 15013KT 6SM BR SCT014
     FM041400 15013G18KT P6SM BKN015
     FM041600 16018G25KT P6SM BKN025
     FM050100 15008KT 5SM BR BKN015
     FM050400 16011KT 4SM BR OVC003
      TEMPO 0504/0508 2SM BR
     FM051100 36014G21KT 4SM -SHRA BR OVC007=



000
FTUS44 KBRO 041134
TAFHRL
TAF
KHRL 041134Z 0412/0512 16015KT P6SM OVC013
     FM041500 17018G25KT P6SM BKN025
     FM050100 15010KT 5SM BR BKN015
     FM050400 16010KT 6SM BR OVC007
     FM050900 05011KT 4SM BR VCSH OVC003
     FM051100 02018G24KT 6SM -SHRA BR OVC007=



000
FTUS44 KBRO 041134
TAFBRO
TAF
KBRO 041134Z 0412/0512 15013KT 6SM BR SCT014
     FM041400 15013G18KT P6SM BKN015
     FM041600 16018G25KT P6SM BKN025
     FM050100 15008KT 5SM BR BKN015
     FM050400 16011KT 4SM BR OVC003
      TEMPO 0504/0508 2SM BR
     FM051100 36014G21KT 4SM -SHRA BR OVC007=



000
FTUS44 KBRO 041134
TAFMFE
TAF
KMFE 041134Z 0412/0512 16012KT P6SM OVC011
     FM041300 15012G17KT P6SM BKN012
     FM041500 16015G20KT P6SM BKN025
     FM050100 14010KT 5SM BR BKN015
     FM050400 14010KT P6SM OVC007
     FM051000 36021G29KT P6SM VCSH OVC007 PROB30 0511/0512 5SM -SHRA
      OVC007=



000
FTUS44 KBRO 041134
TAFHRL
TAF
KHRL 041134Z 0412/0512 16015KT P6SM OVC013
     FM041500 17018G25KT P6SM BKN025
     FM050100 15010KT 5SM BR BKN015
     FM050400 16010KT 6SM BR OVC007
     FM050900 05011KT 4SM BR VCSH OVC003
     FM051100 02018G24KT 6SM -SHRA BR OVC007=



000
FTUS44 KBRO 040617 CCA
TAFMFE
TAF COR
KMFE 040617Z 0406/0506 15012G20KT P6SM OVC010
     FM041300 15012G17KT P6SM BKN012
     FM041500 16015G20KT P6SM SCT030
     FM050100 14010KT 5SM BR BKN015=



000
FTUS44 KBRO 040617 CCA
TAFMFE
TAF COR
KMFE 040617Z 0406/0506 15012G20KT P6SM OVC010
     FM041300 15012G17KT P6SM BKN012
     FM041500 16015G20KT P6SM SCT030
     FM050100 14010KT 5SM BR BKN015=



000
FTUS44 KBRO 040617 CCA
TAFBRO
TAF COR
KBRO 040617Z 0406/0506 16013KT P6SM OVC006
     FM041300 15013G18KT P6SM BKN010
     FM041500 16018G25KT P6SM SCT030
     FM050100 15008KT 5SM BR BKN015=



000
FTUS44 KBRO 040617 CCA
TAFBRO
TAF COR
KBRO 040617Z 0406/0506 16013KT P6SM OVC006
     FM041300 15013G18KT P6SM BKN010
     FM041500 16018G25KT P6SM SCT030
     FM050100 15008KT 5SM BR BKN015=



000
FTUS44 KBRO 040531
TAFBRO
TAF
KBRO 040531Z 0406/0506 15016G25KT P6SM OVC005
     FM041300 15013G18KT P6SM BKN010
     FM041500 16018G25KT P6SM SCT030
     FM050100 15008KT 5SM BR BKN015=



000
FTUS44 KBRO 040531
TAFHRL
TAF
KHRL 040531Z 0406/0506 15010KT P6SM BKN012
     FM041300 15013G18KT P6SM BKN010
     FM041500 17018G25KT P6SM SCT030
     FM050100 15010KT 5SM BR BKN015=



000
FTUS44 KBRO 040531
TAFMFE
TAF
KMFE 040531Z 0406/0506 15009KT P6SM OVC009
     FM041300 15012G17KT P6SM BKN012
     FM041500 16015G20KT P6SM SCT030
     FM050100 14010KT 5SM BR BKN015=



000
FTUS44 KBRO 040531
TAFBRO
TAF
KBRO 040531Z 0406/0506 15016G25KT P6SM OVC005
     FM041300 15013G18KT P6SM BKN010
     FM041500 16018G25KT P6SM SCT030
     FM050100 15008KT 5SM BR BKN015=



000
FTUS44 KBRO 040531
TAFHRL
TAF
KHRL 040531Z 0406/0506 15010KT P6SM BKN012
     FM041300 15013G18KT P6SM BKN010
     FM041500 17018G25KT P6SM SCT030
     FM050100 15010KT 5SM BR BKN015=



000
FTUS44 KBRO 040531
TAFMFE
TAF
KMFE 040531Z 0406/0506 15009KT P6SM OVC009
     FM041300 15012G17KT P6SM BKN012
     FM041500 16015G20KT P6SM SCT030
     FM050100 14010KT 5SM BR BKN015=



000
FTUS44 KBRO 032323
TAFHRL
TAF
KHRL 032323Z 0400/0424 16020G25KT P6SM FEW020
     FM040100 16015G20KT 6SM BR BKN010
     FM041500 17020G28KT P6SM SCT030=



000
FTUS44 KBRO 032323
TAFMFE
TAF
KMFE 032323Z 0400/0424 15020G28KT P6SM FEW020
     FM040200 16015G20KT 6SM BR BKN010
     FM041500 17020G28KT P6SM SCT030=



000
FTUS44 KBRO 032323
TAFBRO
TAF
KBRO 032323Z 0400/0424 14020G25KT P6SM SCT020
     FM040100 16015G20KT 6SM BR BKN010
     FM041500 17020G28KT P6SM SCT030=



000
FTUS44 KBRO 031933 AAA
TAFHRL
TAF AMD
KHRL 031933Z 0320/0418 18018G26KT 6SM HZ SCT020 BKN025
     FM040300 16015G20KT 5SM BR BKN012
     FM040700 15011G18KT 2SM BR OVC005
     FM041500 17015G20KT P6SM BKN015=



000
FTUS44 KBRO 031933 AAA
TAFBRO
TAF AMD
KBRO 031933Z 0320/0418 16020G28KT P6SM SCT022 BKN028
     FM040300 16015G20KT 6SM BR BKN012
     FM040700 15011G18KT 3SM BR OVC005
     FM041500 17015G20KT P6SM BKN015=



000
FTUS44 KBRO 031730
TAFHRL
TAF
KHRL 031730Z 0318/0418 13007KT 3SM BR OVC003
     FM031900 15013G18KT 5SM BR OVC008
     FM032000 16017G24KT P6SM BKN015
     FM040200 16015G20KT 5SM BR BKN012
     FM040700 15011G18KT 2SM BR OVC005
     FM041500 17015G20KT P6SM BKN015=



000
FTUS44 KBRO 031730
TAFMFE
TAF
KMFE 031730Z 0318/0418 00000KT 3SM BR OVC003
     FM031900 15013G18KT 5SM BR OVC008
     FM032000 15017G22KT 6SM BR BKN015
     FM040200 15015G20KT 6SM BR BKN012
     FM040300 16015G20KT 5SM BR BKN006
     FM041500 17015G20KT P6SM BKN015=



000
FTUS44 KBRO 031730
TAFBRO
TAF
KBRO 031730Z 0318/0418 15015G20KT 6SM BR BKN008 OVC013
     FM031900 16017G24KT P6SM BKN015
     FM040200 16015G20KT 5SM BR BKN012
     FM040700 15011G18KT 2SM BR OVC005
     FM041500 17015G20KT P6SM BKN015=



000
FTUS44 KBRO 031730
TAFHRL
TAF
KHRL 031730Z 0318/0418 13007KT 3SM BR OVC003
     FM031900 15013G18KT 5SM BR OVC008
     FM032000 16017G24KT P6SM BKN015
     FM040200 16015G20KT 5SM BR BKN012
     FM040700 15011G18KT 2SM BR OVC005
     FM041500 17015G20KT P6SM BKN015=



000
FTUS44 KBRO 031730
TAFBRO
TAF
KBRO 031730Z 0318/0418 15015G20KT 6SM BR BKN008 OVC013
     FM031900 16017G24KT P6SM BKN015
     FM040200 16015G20KT 5SM BR BKN012
     FM040700 15011G18KT 2SM BR OVC005
     FM041500 17015G20KT P6SM BKN015=



000
FTUS44 KBRO 031730
TAFMFE
TAF
KMFE 031730Z 0318/0418 00000KT 3SM BR OVC003
     FM031900 15013G18KT 5SM BR OVC008
     FM032000 15017G22KT 6SM BR BKN015
     FM040200 15015G20KT 6SM BR BKN012
     FM040300 16015G20KT 5SM BR BKN006
     FM041500 17015G20KT P6SM BKN015=



000
FTUS44 KBRO 031500 AAB
TAFBRO
TAF AMD
KBRO 031500Z 0315/0412 VRB02KT 1/2SM FG VV002
     FM031630 16006KT 1SM BR BKN006
     FM031800 16010G15KT 6SM BR BKN012
     FM032000 16015G22KT P6SM BKN020
     FM040200 16015G20KT 5SM BR BKN012
     FM040700 15011G18KT 5SM BR OVC008=



000
FTUS44 KBRO 031455 AAA
TAFBRO
TAF AMD
KBRO 031455Z 0315/0412 VRB02KT 1/4SM FG VV002
     FM031630 16006KT 3/4SM BR BKN006
     FM031800 16010G15KT 6SM BR BKN012
     FM032000 16015G22KT P6SM BKN020
     FM040200 16015G20KT 5SM BR BKN012
     FM040700 15011G18KT 5SM BR OVC008=



000
FTUS44 KBRO 031455 AAA
TAFMFE
TAF AMD
KMFE 031455Z 0315/0412 32003KT 1SM BR OVC003
     FM031700 15008KT 3SM BR BKN008
     FM031900 15015G20KT P6SM BKN015
     FM032100 16018G24KT P6SM BKN020
     FM040100 15015G20KT 6SM BR BKN012=



000
FTUS44 KBRO 031455 AAA
TAFHRL
TAF AMD
KHRL 031455Z 0315/0412 VRB03KT 1/2SM FG VV002
     FM031630 16006KT 3/4SM BR BKN006
     FM031800 16010G15KT 6SM BR BKN012
     FM032000 16017G22KT P6SM BKN020
     FM040200 16015G20KT 5SM BR BKN012
     FM040700 15011G18KT 5SM BR OVC008=



000
FTUS44 KBRO 031120
TAFBRO
TAF
KBRO 031120Z 0312/0412 VRB03KT 1/4SM FG VV002
     FM031500 16008KT 5SM BR BKN010
     FM031700 16017G26KT P6SM BKN025
     FM031900 16017G26KT P6SM BKN030
     FM040200 16015G20KT 5SM BR BKN012
     FM040700 15011G18KT 5SM BR OVC008=



000
FTUS44 KBRO 031120
TAFHRL
TAF
KHRL 031120Z 0312/0412 VRB03KT 1/4SM FG VV002
     FM031500 16008KT 5SM BR BKN010
     FM031700 17023G30KT P6SM BKN030
     FM040000 15015G20KT 6SM BR BKN012
     FM040700 15011G18KT 5SM BR OVC008=



000
FTUS44 KBRO 031120
TAFMFE
TAF
KMFE 031120Z 0312/0412 32003KT 1/2SM FG OVC003
     FM031500 15008KT 5SM BR BKN010
     FM031700 15023G30KT P6SM BKN030
     FM040100 15015G20KT 6SM BR BKN012=



000
FTUS44 KBRO 030523
TAFMFE
TAF
KMFE 030523Z 0306/0406 32003KT 1SM BR OVC003
     FM031500 15008KT P6SM BKN010
     FM031700 15023G30KT P6SM BKN030
     FM040100 15015G20KT 6SM BR BKN015=



000
FTUS44 KBRO 030523
TAFBRO
TAF
KBRO 030523Z 0306/0406 VRB03KT 3/4SM BR VV003
     FM031500 16008KT P6SM BKN010
     FM031700 16020G28KT P6SM BKN030
     FM040000 16015G20KT 6SM BR BKN015=



000
FTUS44 KBRO 030523
TAFHRL
TAF
KHRL 030523Z 0306/0406 VRB03KT 3/4SM BR VV002
     FM031500 16008KT P6SM BKN010
     FM031700 17023G30KT P6SM BKN030
     FM040000 15015G20KT 6SM BR BKN015=



000
FTUS44 KBRO 022323
TAFBRO
TAF
KBRO 022323Z 0300/0324 36007KT 3/4SM BR OVC002
     FM030400 16005KT 1/4SM FG VV001
     FM031500 16010KT P6SM BKN015
     FM031700 16020G28KT P6SM BKN030=



000
FTUS44 KBRO 022323
TAFHRL
TAF
KHRL 022323Z 0300/0324 36007KT 1SM BR OVC002
     FM030400 15005KT 1/4SM FG VV001
     FM031500 16010KT P6SM BKN015
     FM031700 17023G30KT P6SM BKN030=



000
FTUS44 KBRO 022323
TAFMFE
TAF
KMFE 022323Z 0300/0324 35005KT 2SM BR OVC004
     FM030400 12010KT 1/4SM FG VV001
     FM031500 15010KT P6SM BKN015
     FM031700 15023G30KT P6SM BKN030=



000
FTUS44 KBRO 022040 AAA
TAFMFE
TAF AMD
KMFE 022040Z 0221/0318 33007KT 2SM BR OVC004
      TEMPO 0221/0224 3SM BR OVC006
     FM031600 16015G22KT P6SM OVC010=



000
FTUS44 KBRO 022040 AAA
TAFMFE
TAF AMD
KMFE 022040Z 0221/0318 33007KT 2SM BR OVC004
      TEMPO 0221/0224 3SM BR OVC006
     FM031600 16015G22KT P6SM OVC010=



000
FTUS44 KBRO 022039 AAA
TAFHRL
TAF AMD
KHRL 022039Z 0221/0318 32008KT 1 1/2SM BR OVC002
     FM031600 17017G24KT 5SM BR OVC010=



000
FTUS44 KBRO 022039 AAA
TAFHRL
TAF AMD
KHRL 022039Z 0221/0318 32008KT 1 1/2SM BR OVC002
     FM031600 17017G24KT 5SM BR OVC010=



000
FTUS44 KBRO 022038 AAA
TAFBRO
TAF AMD
KBRO 022038Z 0221/0318 35008KT 1 1/2SM BR OVC003
     FM031600 17017G23KT 5SM BR OVC010=



000
FTUS44 KBRO 021735
TAFBRO
TAF
KBRO 021735Z 0218/0318 35008KT 1 1/2SM BR OVC002
     FM022000 33008KT 4SM BR OVC004
     FM030200 06005KT 2SM BR OVC003=



000
FTUS44 KBRO 021735
TAFHRL
TAF
KHRL 021735Z 0218/0318 32008KT 2SM BR OVC003
     FM021900 33008KT 4SM BR OVC004
     FM030200 06007KT 2SM BR OVC003=



000
FTUS44 KBRO 021735
TAFMFE
TAF
KMFE 021735Z 0218/0318 33007KT 5SM BR OVC005
     FM022000 32008KT 5SM BR OVC006
     FM030200 06005KT 3SM BR OVC004=



000
FTUS44 KBRO 021735
TAFHRL
TAF
KHRL 021735Z 0218/0318 32008KT 2SM BR OVC003
     FM021900 33008KT 4SM BR OVC004
     FM030200 06007KT 2SM BR OVC003=



000
FTUS44 KBRO 021735
TAFBRO
TAF
KBRO 021735Z 0218/0318 35008KT 1 1/2SM BR OVC002
     FM022000 33008KT 4SM BR OVC004
     FM030200 06005KT 2SM BR OVC003=



000
FTUS44 KBRO 021735
TAFMFE
TAF
KMFE 021735Z 0218/0318 33007KT 5SM BR OVC005
     FM022000 32008KT 5SM BR OVC006
     FM030200 06005KT 3SM BR OVC004=



000
FTUS44 KBRO 021456 AAA
TAFHRL
TAF AMD
KHRL 021456Z 0215/0312 32008KT 3/4SM -DZ BR OVC002
     FM021700 33008KT 3SM -DZ BR OVC007
     FM030200 06007KT 4SM BR OVC004=



000
FTUS44 KBRO 021456 AAA
TAFHRL
TAF AMD
KHRL 021456Z 0215/0312 32008KT 3/4SM -DZ BR OVC002
     FM021700 33008KT 3SM -DZ BR OVC007
     FM030200 06007KT 4SM BR OVC004=



000
FTUS44 KBRO 021453 AAA
TAFBRO
TAF AMD
KBRO 021453Z 0215/0312 35008KT 3/4SM -DZ BR OVC002
     FM021700 33008KT 5SM -DZ BR OVC007
     FM030200 06005KT 5SM BR OVC004=



000
FTUS44 KBRO 021120
TAFHRL
TAF
KHRL 021120Z 0212/0312 32008KT 3SM -DZ BR OVC003
     FM021700 33008KT 3SM -DZ BR OVC007
     FM030200 06007KT 4SM BR OVC004=



000
FTUS44 KBRO 021120
TAFMFE
TAF
KMFE 021120Z 0212/0312 33007KT 2SM BR OVC004
     FM021700 32008KT 5SM BR OVC006
     FM030300 06005KT 4SM BR OVC003=



000
FTUS44 KBRO 021120
TAFBRO
TAF
KBRO 021120Z 0212/0312 35008KT 5SM -DZ BR OVC003
     FM021700 33008KT 5SM -DZ BR OVC007
     FM030200 06005KT 5SM BR OVC004=



000
FTUS44 KBRO 021120
TAFHRL
TAF
KHRL 021120Z 0212/0312 32008KT 3SM -DZ BR OVC003
     FM021700 33008KT 3SM -DZ BR OVC007
     FM030200 06007KT 4SM BR OVC004=



000
FTUS44 KBRO 021120
TAFBRO
TAF
KBRO 021120Z 0212/0312 35008KT 5SM -DZ BR OVC003
     FM021700 33008KT 5SM -DZ BR OVC007
     FM030200 06005KT 5SM BR OVC004=



000
FTUS44 KBRO 021120
TAFMFE
TAF
KMFE 021120Z 0212/0312 33007KT 2SM BR OVC004
     FM021700 32008KT 5SM BR OVC006
     FM030300 06005KT 4SM BR OVC003=



    US Dept of Commerce
    National Oceanic and Atmospheric Administration
    National Weather Service
    1325 East West Highway
    Silver Spring, MD 20910
    Page Author: NWS Internet Services Team
Disclaimer
Information Quality
Credits
Glossary
Privacy Policy
Freedom of Information Act (FOIA)
About Us
Career Opportunities